sensor_id;sensor_type;location;lat;lon;timestamp;P1;durP1;ratioP1;P2;durP2;ratioP2
21170;SDS011;10743;52.160;20.910;2022-12-07T00:01:40;189.17;;;66.07;;
21170;SDS011;10743;52.160;20.910;2022-12-07T00:04:13;188.50;;;65.23;;
21170;SDS011;10743;52.160;20.910;2022-12-07T00:06:43;190.63;;;65.13;;
21170;SDS011;10743;52.160;20.910;2022-12-07T00:09:14;187.03;;;65.50;;
21170;SDS011;10743;52.160;20.910;2022-12-07T00:11:43;189.73;;;65.20;;
21170;SDS011;10743;52.160;20.910;2022-12-07T00:14:12;179.87;;;62.30;;
21170;SDS011;10743;52.160;20.910;2022-12-07T00:16:40;193.13;;;66.13;;
21170;SDS011;10743;52.160;20.910;2022-12-07T00:19:09;185.60;;;63.93;;
21170;SDS011;10743;52.160;20.910;2022-12-07T00:21:38;187.40;;;65.93;;
21170;SDS011;10743;52.160;20.910;2022-12-07T00:24:06;187.27;;;63.70;;
21170;SDS011;10743;52.160;20.910;2022-12-07T00:26:34;192.63;;;65.20;;
21170;SDS011;10743;52.160;20.910;2022-12-07T00:29:11;187.60;;;66.07;;
21170;SDS011;10743;52.160;20.910;2022-12-07T00:31:47;198.30;;;69.37;;
21170;SDS011;10743;52.160;20.910;2022-12-07T00:34:16;224.53;;;78.90;;
21170;SDS011;10743;52.160;20.910;2022-12-07T00:36:46;200.33;;;72.53;;
21170;SDS011;10743;52.160;20.910;2022-12-07T00:39:13;209.27;;;72.93;;
21170;SDS011;10743;52.160;20.910;2022-12-07T00:41:40;203.17;;;73.13;;
21170;SDS011;10743;52.160;20.910;2022-12-07T00:44:07;199.93;;;70.07;;
21170;SDS011;10743;52.160;20.910;2022-12-07T00:46:34;193.97;;;69.03;;
21170;SDS011;10743;52.160;20.910;2022-12-07T00:49:02;185.33;;;63.87;;
21170;SDS011;10743;52.160;20.910;2022-12-07T00:51:29;184.90;;;63.73;;
21170;SDS011;10743;52.160;20.910;2022-12-07T00:53:56;197.77;;;68.07;;
21170;SDS011;10743;52.160;20.910;2022-12-07T00:56:24;188.87;;;64.47;;
21170;SDS011;10743;52.160;20.910;2022-12-07T00:58:57;187.37;;;64.57;;
21170;SDS011;10743;52.160;20.910;2022-12-07T01:01:30;185.67;;;64.80;;
21170;SDS011;10743;52.160;20.910;2022-12-07T01:04:00;189.10;;;65.57;;
21170;SDS011;10743;52.160;20.910;2022-12-07T01:06:28;182.80;;;63.00;;
21170;SDS011;10743;52.160;20.910;2022-12-07T01:08:56;190.60;;;64.93;;
21170;SDS011;10743;52.160;20.910;2022-12-07T01:11:24;178.80;;;63.30;;
21170;SDS011;10743;52.160;20.910;2022-12-07T01:13:55;181.23;;;62.17;;
21170;SDS011;10743;52.160;20.910;2022-12-07T01:16:24;182.20;;;60.20;;
21170;SDS011;10743;52.160;20.910;2022-12-07T01:18:53;178.30;;;58.83;;
21170;SDS011;10743;52.160;20.910;2022-12-07T01:21:29;175.50;;;58.13;;
21170;SDS011;10743;52.160;20.910;2022-12-07T01:24:05;171.30;;;56.50;;
21170;SDS011;10743;52.160;20.910;2022-12-07T01:26:35;163.77;;;55.50;;
21170;SDS011;10743;52.160;20.910;2022-12-07T01:29:03;167.37;;;55.40;;
21170;SDS011;10743;52.160;20.910;2022-12-07T01:31:30;164.13;;;55.27;;
21170;SDS011;10743;52.160;20.910;2022-12-07T01:33:58;165.23;;;55.20;;
21170;SDS011;10743;52.160;20.910;2022-12-07T01:36:27;173.63;;;57.47;;
21170;SDS011;10743;52.160;20.910;2022-12-07T01:39:01;165.60;;;55.83;;
21170;SDS011;10743;52.160;20.910;2022-12-07T01:41:35;167.53;;;55.97;;
21170;SDS011;10743;52.160;20.910;2022-12-07T01:46:42;164.10;;;55.07;;
21170;SDS011;10743;52.160;20.910;2022-12-07T01:49:17;162.27;;;54.83;;
21170;SDS011;10743;52.160;20.910;2022-12-07T01:51:48;171.10;;;57.10;;
21170;SDS011;10743;52.160;20.910;2022-12-07T01:54:18;163.47;;;55.37;;
21170;SDS011;10743;52.160;20.910;2022-12-07T01:56:49;164.83;;;54.73;;
21170;SDS011;10743;52.160;20.910;2022-12-07T01:59:21;167.60;;;54.47;;
21170;SDS011;10743;52.160;20.910;2022-12-07T02:01:51;162.07;;;54.07;;
21170;SDS011;10743;52.160;20.910;2022-12-07T02:04:20;166.67;;;55.60;;
21170;SDS011;10743;52.160;20.910;2022-12-07T02:06:48;163.37;;;53.90;;
21170;SDS011;10743;52.160;20.910;2022-12-07T02:09:17;162.13;;;53.67;;
21170;SDS011;10743;52.160;20.910;2022-12-07T02:11:44;170.43;;;55.17;;
21170;SDS011;10743;52.160;20.910;2022-12-07T02:14:12;158.93;;;54.13;;
21170;SDS011;10743;52.160;20.910;2022-12-07T02:17:01;162.20;;;54.67;;
21170;SDS011;10743;52.160;20.910;2022-12-07T02:34:58;154.17;;;52.30;;
21170;SDS011;10743;52.160;20.910;2022-12-07T02:40:17;160.23;;;54.57;;
21170;SDS011;10743;52.160;20.910;2022-12-07T02:43:04;164.67;;;54.73;;
21170;SDS011;10743;52.160;20.910;2022-12-07T02:45:36;169.53;;;55.00;;
21170;SDS011;10743;52.160;20.910;2022-12-07T02:48:07;164.53;;;54.03;;
21170;SDS011;10743;52.160;20.910;2022-12-07T02:50:38;160.27;;;54.13;;
21170;SDS011;10743;52.160;20.910;2022-12-07T02:53:05;162.40;;;54.13;;
21170;SDS011;10743;52.160;20.910;2022-12-07T02:55:52;174.27;;;54.30;;
21170;SDS011;10743;52.160;20.910;2022-12-07T02:58:22;151.47;;;50.63;;
21170;SDS011;10743;52.160;20.910;2022-12-07T03:01:49;152.60;;;51.07;;
21170;SDS011;10743;52.160;20.910;2022-12-07T03:07:21;147.67;;;50.10;;
21170;SDS011;10743;52.160;20.910;2022-12-07T03:10:33;155.57;;;51.80;;
21170;SDS011;10743;52.160;20.910;2022-12-07T03:16:33;151.57;;;50.57;;
21170;SDS011;10743;52.160;20.910;2022-12-07T03:19:15;143.97;;;49.47;;
21170;SDS011;10743;52.160;20.910;2022-12-07T03:21:46;150.33;;;50.53;;
21170;SDS011;10743;52.160;20.910;2022-12-07T03:24:20;146.33;;;49.70;;
21170;SDS011;10743;52.160;20.910;2022-12-07T03:26:53;151.10;;;50.87;;
21170;SDS011;10743;52.160;20.910;2022-12-07T03:29:36;150.37;;;50.43;;
21170;SDS011;10743;52.160;20.910;2022-12-07T03:32:17;147.40;;;50.03;;
21170;SDS011;10743;52.160;20.910;2022-12-07T03:34:53;149.93;;;50.10;;
21170;SDS011;10743;52.160;20.910;2022-12-07T03:43:11;150.03;;;50.57;;
21170;SDS011;10743;52.160;20.910;2022-12-07T03:45:43;147.57;;;50.37;;
21170;SDS011;10743;52.160;20.910;2022-12-07T03:51:10;155.23;;;51.23;;
21170;SDS011;10743;52.160;20.910;2022-12-07T03:53:57;145.93;;;49.37;;
21170;SDS011;10743;52.160;20.910;2022-12-07T03:56:46;149.30;;;49.87;;
21170;SDS011;10743;52.160;20.910;2022-12-07T03:59:15;146.63;;;49.17;;
21170;SDS011;10743;52.160;20.910;2022-12-07T04:01:43;149.97;;;50.80;;
21170;SDS011;10743;52.160;20.910;2022-12-07T04:04:18;147.73;;;50.00;;
21170;SDS011;10743;52.160;20.910;2022-12-07T04:06:45;147.73;;;49.67;;
21170;SDS011;10743;52.160;20.910;2022-12-07T04:09:12;147.30;;;49.43;;
21170;SDS011;10743;52.160;20.910;2022-12-07T04:11:40;146.27;;;49.47;;
21170;SDS011;10743;52.160;20.910;2022-12-07T04:14:07;149.03;;;49.83;;
21170;SDS011;10743;52.160;20.910;2022-12-07T04:16:50;149.63;;;50.83;;
21170;SDS011;10743;52.160;20.910;2022-12-07T04:19:23;146.13;;;49.70;;
21170;SDS011;10743;52.160;20.910;2022-12-07T04:21:56;150.23;;;49.90;;
21170;SDS011;10743;52.160;20.910;2022-12-07T04:24:25;149.10;;;50.50;;
21170;SDS011;10743;52.160;20.910;2022-12-07T04:26:53;149.77;;;50.27;;
21170;SDS011;10743;52.160;20.910;2022-12-07T04:29:21;148.63;;;50.50;;
21170;SDS011;10743;52.160;20.910;2022-12-07T04:31:48;148.13;;;50.63;;
21170;SDS011;10743;52.160;20.910;2022-12-07T04:34:16;150.17;;;50.60;;
21170;SDS011;10743;52.160;20.910;2022-12-07T04:36:45;150.80;;;49.87;;
21170;SDS011;10743;52.160;20.910;2022-12-07T04:39:18;151.37;;;50.50;;
21170;SDS011;10743;52.160;20.910;2022-12-07T04:41:48;143.20;;;50.13;;
21170;SDS011;10743;52.160;20.910;2022-12-07T04:44:15;145.73;;;50.10;;
21170;SDS011;10743;52.160;20.910;2022-12-07T04:46:43;149.53;;;50.27;;
21170;SDS011;10743;52.160;20.910;2022-12-07T04:49:12;148.70;;;50.07;;
21170;SDS011;10743;52.160;20.910;2022-12-07T04:51:41;150.40;;;50.20;;
21170;SDS011;10743;52.160;20.910;2022-12-07T04:54:10;147.83;;;50.00;;
21170;SDS011;10743;52.160;20.910;2022-12-07T04:56:39;146.53;;;50.07;;
21170;SDS011;10743;52.160;20.910;2022-12-07T04:59:06;146.33;;;49.90;;
21170;SDS011;10743;52.160;20.910;2022-12-07T05:01:34;142.40;;;49.20;;
21170;SDS011;10743;52.160;20.910;2022-12-07T05:04:01;151.70;;;50.37;;
21170;SDS011;10743;52.160;20.910;2022-12-07T05:06:29;147.77;;;50.00;;
21170;SDS011;10743;52.160;20.910;2022-12-07T05:08:56;149.87;;;50.33;;
21170;SDS011;10743;52.160;20.910;2022-12-07T05:11:23;149.03;;;50.40;;
21170;SDS011;10743;52.160;20.910;2022-12-07T05:14:13;150.53;;;50.50;;
21170;SDS011;10743;52.160;20.910;2022-12-07T05:16:46;148.10;;;50.37;;
21170;SDS011;10743;52.160;20.910;2022-12-07T05:19:17;152.23;;;51.47;;
21170;SDS011;10743;52.160;20.910;2022-12-07T05:21:45;152.83;;;51.70;;
21170;SDS011;10743;52.160;20.910;2022-12-07T05:24:13;150.27;;;50.97;;
21170;SDS011;10743;52.160;20.910;2022-12-07T05:26:41;153.47;;;51.73;;
21170;SDS011;10743;52.160;20.910;2022-12-07T05:29:10;156.97;;;52.83;;
21170;SDS011;10743;52.160;20.910;2022-12-07T05:31:42;152.17;;;51.07;;
21170;SDS011;10743;52.160;20.910;2022-12-07T05:34:10;150.03;;;51.37;;
21170;SDS011;10743;52.160;20.910;2022-12-07T05:36:37;150.30;;;51.43;;
21170;SDS011;10743;52.160;20.910;2022-12-07T05:39:04;144.93;;;50.47;;
21170;SDS011;10743;52.160;20.910;2022-12-07T05:41:31;147.73;;;50.77;;
21170;SDS011;10743;52.160;20.910;2022-12-07T05:44:17;146.93;;;51.03;;
21170;SDS011;10743;52.160;20.910;2022-12-07T05:46:44;147.50;;;50.93;;
21170;SDS011;10743;52.160;20.910;2022-12-07T05:49:11;147.80;;;51.07;;
21170;SDS011;10743;52.160;20.910;2022-12-07T05:51:38;152.93;;;51.93;;
21170;SDS011;10743;52.160;20.910;2022-12-07T05:54:05;151.53;;;52.70;;
21170;SDS011;10743;52.160;20.910;2022-12-07T05:56:32;164.50;;;55.13;;
21170;SDS011;10743;52.160;20.910;2022-12-07T05:58:59;183.97;;;64.93;;
21170;SDS011;10743;52.160;20.910;2022-12-07T06:01:44;165.67;;;60.27;;
21170;SDS011;10743;52.160;20.910;2022-12-07T06:04:11;160.70;;;55.93;;
21170;SDS011;10743;52.160;20.910;2022-12-07T06:06:38;151.07;;;53.23;;
21170;SDS011;10743;52.160;20.910;2022-12-07T06:09:06;154.47;;;54.57;;
21170;SDS011;10743;52.160;20.910;2022-12-07T06:11:33;150.77;;;52.50;;
21170;SDS011;10743;52.160;20.910;2022-12-07T06:14:18;147.73;;;51.97;;
21170;SDS011;10743;52.160;20.910;2022-12-07T06:16:45;152.13;;;54.13;;
21170;SDS011;10743;52.160;20.910;2022-12-07T06:19:13;154.17;;;53.80;;
21170;SDS011;10743;52.160;20.910;2022-12-07T06:21:40;157.10;;;54.67;;
21170;SDS011;10743;52.160;20.910;2022-12-07T06:24:09;158.33;;;55.00;;
21170;SDS011;10743;52.160;20.910;2022-12-07T06:26:38;160.37;;;55.10;;
21170;SDS011;10743;52.160;20.910;2022-12-07T06:29:06;151.97;;;53.63;;
21170;SDS011;10743;52.160;20.910;2022-12-07T06:31:33;150.93;;;52.17;;
21170;SDS011;10743;52.160;20.910;2022-12-07T06:34:03;155.07;;;52.40;;
21170;SDS011;10743;52.160;20.910;2022-12-07T06:36:33;154.70;;;53.70;;
21170;SDS011;10743;52.160;20.910;2022-12-07T06:39:00;152.83;;;54.07;;
21170;SDS011;10743;52.160;20.910;2022-12-07T06:41:28;157.13;;;53.13;;
21170;SDS011;10743;52.160;20.910;2022-12-07T06:43:55;151.80;;;51.70;;
21170;SDS011;10743;52.160;20.910;2022-12-07T06:46:22;150.03;;;52.30;;
21170;SDS011;10743;52.160;20.910;2022-12-07T06:48:50;153.23;;;53.37;;
21170;SDS011;10743;52.160;20.910;2022-12-07T06:51:17;155.20;;;52.80;;
21170;SDS011;10743;52.160;20.910;2022-12-07T06:53:44;153.73;;;52.83;;
21170;SDS011;10743;52.160;20.910;2022-12-07T06:56:11;152.97;;;53.87;;
21170;SDS011;10743;52.160;20.910;2022-12-07T06:58:38;157.03;;;54.30;;
21170;SDS011;10743;52.160;20.910;2022-12-07T07:01:10;267.20;;;80.83;;
21170;SDS011;10743;52.160;20.910;2022-12-07T07:03:39;207.73;;;71.03;;
21170;SDS011;10743;52.160;20.910;2022-12-07T07:06:06;197.93;;;67.77;;
21170;SDS011;10743;52.160;20.910;2022-12-07T07:08:35;164.27;;;56.87;;
21170;SDS011;10743;52.160;20.910;2022-12-07T07:11:03;164.70;;;54.37;;
21170;SDS011;10743;52.160;20.910;2022-12-07T07:13:31;156.13;;;53.03;;
21170;SDS011;10743;52.160;20.910;2022-12-07T07:15:59;154.20;;;52.67;;
21170;SDS011;10743;52.160;20.910;2022-12-07T07:18:26;151.43;;;52.50;;
21170;SDS011;10743;52.160;20.910;2022-12-07T07:20:54;145.90;;;51.60;;
21170;SDS011;10743;52.160;20.910;2022-12-07T07:23:21;145.43;;;52.10;;
21170;SDS011;10743;52.160;20.910;2022-12-07T07:25:48;152.53;;;53.10;;
21170;SDS011;10743;52.160;20.910;2022-12-07T07:28:16;146.20;;;51.40;;
21170;SDS011;10743;52.160;20.910;2022-12-07T07:30:43;154.07;;;53.33;;
21170;SDS011;10743;52.160;20.910;2022-12-07T07:33:11;151.87;;;52.73;;
21170;SDS011;10743;52.160;20.910;2022-12-07T07:35:39;152.97;;;53.50;;
21170;SDS011;10743;52.160;20.910;2022-12-07T07:38:07;154.77;;;53.83;;
21170;SDS011;10743;52.160;20.910;2022-12-07T07:40:34;144.17;;;51.77;;
21170;SDS011;10743;52.160;20.910;2022-12-07T07:43:02;150.47;;;52.93;;
21170;SDS011;10743;52.160;20.910;2022-12-07T07:45:29;144.20;;;51.03;;
21170;SDS011;10743;52.160;20.910;2022-12-07T07:47:56;151.43;;;53.50;;
21170;SDS011;10743;52.160;20.910;2022-12-07T07:50:23;149.07;;;52.70;;
21170;SDS011;10743;52.160;20.910;2022-12-07T07:52:50;152.47;;;53.23;;
21170;SDS011;10743;52.160;20.910;2022-12-07T07:55:18;148.53;;;53.00;;
21170;SDS011;10743;52.160;20.910;2022-12-07T07:57:45;149.87;;;52.57;;
21170;SDS011;10743;52.160;20.910;2022-12-07T08:00:19;144.77;;;50.77;;
21170;SDS011;10743;52.160;20.910;2022-12-07T08:02:47;151.60;;;52.00;;
21170;SDS011;10743;52.160;20.910;2022-12-07T08:05:14;153.53;;;52.57;;
21170;SDS011;10743;52.160;20.910;2022-12-07T08:07:42;149.73;;;53.40;;
21170;SDS011;10743;52.160;20.910;2022-12-07T08:10:10;146.63;;;51.63;;
21170;SDS011;10743;52.160;20.910;2022-12-07T08:12:40;147.50;;;51.73;;
21170;SDS011;10743;52.160;20.910;2022-12-07T08:15:28;148.03;;;51.53;;
21170;SDS011;10743;52.160;20.910;2022-12-07T08:17:57;150.13;;;52.07;;
21170;SDS011;10743;52.160;20.910;2022-12-07T08:20:25;148.97;;;51.87;;
21170;SDS011;10743;52.160;20.910;2022-12-07T08:22:52;149.33;;;52.00;;
21170;SDS011;10743;52.160;20.910;2022-12-07T08:25:19;149.10;;;52.63;;
21170;SDS011;10743;52.160;20.910;2022-12-07T08:27:49;150.07;;;53.57;;
21170;SDS011;10743;52.160;20.910;2022-12-07T08:30:18;155.03;;;53.27;;
21170;SDS011;10743;52.160;20.910;2022-12-07T08:32:45;159.83;;;55.00;;
21170;SDS011;10743;52.160;20.910;2022-12-07T08:35:14;160.50;;;60.20;;
21170;SDS011;10743;52.160;20.910;2022-12-07T08:37:41;156.57;;;53.10;;
21170;SDS011;10743;52.160;20.910;2022-12-07T08:40:09;155.73;;;53.37;;
21170;SDS011;10743;52.160;20.910;2022-12-07T08:42:41;152.77;;;53.50;;
21170;SDS011;10743;52.160;20.910;2022-12-07T08:45:11;162.37;;;53.90;;
21170;SDS011;10743;52.160;20.910;2022-12-07T08:47:50;183.23;;;59.73;;
21170;SDS011;10743;52.160;20.910;2022-12-07T08:50:32;179.30;;;60.23;;
21170;SDS011;10743;52.160;20.910;2022-12-07T08:53:02;196.90;;;65.77;;
21170;SDS011;10743;52.160;20.910;2022-12-07T08:55:31;394.67;;;352.37;;
21170;SDS011;10743;52.160;20.910;2022-12-07T08:58:00;344.77;;;263.73;;
21170;SDS011;10743;52.160;20.910;2022-12-07T09:00:28;387.60;;;327.77;;
21170;SDS011;10743;52.160;20.910;2022-12-07T09:02:55;207.73;;;67.30;;
21170;SDS011;10743;52.160;20.910;2022-12-07T09:05:22;169.43;;;57.23;;
21170;SDS011;10743;52.160;20.910;2022-12-07T09:07:51;160.10;;;55.67;;
21170;SDS011;10743;52.160;20.910;2022-12-07T09:10:22;170.83;;;57.27;;
21170;SDS011;10743;52.160;20.910;2022-12-07T09:12:49;160.33;;;54.43;;
21170;SDS011;10743;52.160;20.910;2022-12-07T09:15:16;164.27;;;55.47;;
21170;SDS011;10743;52.160;20.910;2022-12-07T09:17:43;164.70;;;55.37;;
21170;SDS011;10743;52.160;20.910;2022-12-07T09:20:11;164.63;;;55.90;;
21170;SDS011;10743;52.160;20.910;2022-12-07T09:22:38;175.43;;;55.57;;
21170;SDS011;10743;52.160;20.910;2022-12-07T09:25:05;167.87;;;56.23;;
21170;SDS011;10743;52.160;20.910;2022-12-07T09:27:32;159.83;;;53.90;;
21170;SDS011;10743;52.160;20.910;2022-12-07T09:29:59;178.13;;;56.37;;
21170;SDS011;10743;52.160;20.910;2022-12-07T09:32:27;182.10;;;58.23;;
21170;SDS011;10743;52.160;20.910;2022-12-07T09:34:54;176.67;;;56.63;;
21170;SDS011;10743;52.160;20.910;2022-12-07T09:37:21;177.23;;;57.00;;
21170;SDS011;10743;52.160;20.910;2022-12-07T09:39:48;174.67;;;59.00;;
21170;SDS011;10743;52.160;20.910;2022-12-07T09:42:26;169.70;;;56.37;;
21170;SDS011;10743;52.160;20.910;2022-12-07T09:45:29;172.27;;;57.40;;
21170;SDS011;10743;52.160;20.910;2022-12-07T09:48:02;163.90;;;54.13;;
21170;SDS011;10743;52.160;20.910;2022-12-07T09:50:30;174.60;;;55.57;;
21170;SDS011;10743;52.160;20.910;2022-12-07T09:53:05;170.03;;;56.30;;
21170;SDS011;10743;52.160;20.910;2022-12-07T09:55:47;182.67;;;59.23;;
21170;SDS011;10743;52.160;20.910;2022-12-07T09:58:19;185.00;;;61.70;;
21170;SDS011;10743;52.160;20.910;2022-12-07T10:01:12;160.97;;;54.43;;
21170;SDS011;10743;52.160;20.910;2022-12-07T10:03:49;167.87;;;56.63;;
21170;SDS011;10743;52.160;20.910;2022-12-07T10:06:19;170.30;;;56.70;;
21170;SDS011;10743;52.160;20.910;2022-12-07T10:08:46;166.83;;;55.57;;
21170;SDS011;10743;52.160;20.910;2022-12-07T10:11:14;177.43;;;56.27;;
21170;SDS011;10743;52.160;20.910;2022-12-07T10:13:43;170.57;;;55.63;;
21170;SDS011;10743;52.160;20.910;2022-12-07T10:19:18;181.83;;;58.60;;
21170;SDS011;10743;52.160;20.910;2022-12-07T10:22:11;171.80;;;56.73;;
21170;SDS011;10743;52.160;20.910;2022-12-07T10:24:41;171.27;;;56.43;;
21170;SDS011;10743;52.160;20.910;2022-12-07T10:27:26;165.97;;;56.23;;
21170;SDS011;10743;52.160;20.910;2022-12-07T10:29:58;165.20;;;55.70;;
21170;SDS011;10743;52.160;20.910;2022-12-07T10:32:28;168.83;;;56.27;;
21170;SDS011;10743;52.160;20.910;2022-12-07T10:35:20;180.67;;;57.73;;
21170;SDS011;10743;52.160;20.910;2022-12-07T10:37:52;168.07;;;54.97;;
21170;SDS011;10743;52.160;20.910;2022-12-07T10:43:05;167.63;;;55.13;;
21170;SDS011;10743;52.160;20.910;2022-12-07T10:54:39;170.70;;;56.50;;
21170;SDS011;10743;52.160;20.910;2022-12-07T11:00:21;164.67;;;56.33;;
21170;SDS011;10743;52.160;20.910;2022-12-07T11:12:39;165.77;;;55.83;;
21170;SDS011;10743;52.160;20.910;2022-12-07T11:15:36;171.13;;;58.10;;
21170;SDS011;10743;52.160;20.910;2022-12-07T11:18:16;174.40;;;57.70;;
21170;SDS011;10743;52.160;20.910;2022-12-07T11:21:03;187.50;;;59.63;;
21170;SDS011;10743;52.160;20.910;2022-12-07T11:26:34;156.50;;;53.90;;
21170;SDS011;10743;52.160;20.910;2022-12-07T11:32:57;161.53;;;55.13;;
21170;SDS011;10743;52.160;20.910;2022-12-07T11:35:51;160.53;;;55.87;;
21170;SDS011;10743;52.160;20.910;2022-12-07T11:38:49;168.67;;;57.20;;
21170;SDS011;10743;52.160;20.910;2022-12-07T11:41:21;162.30;;;54.33;;
21170;SDS011;10743;52.160;20.910;2022-12-07T11:43:54;159.93;;;54.63;;
21170;SDS011;10743;52.160;20.910;2022-12-07T11:46:49;173.83;;;56.80;;
21170;SDS011;10743;52.160;20.910;2022-12-07T11:52:11;169.70;;;57.20;;
21170;SDS011;10743;52.160;20.910;2022-12-07T11:54:49;166.77;;;56.33;;
21170;SDS011;10743;52.160;20.910;2022-12-07T11:57:25;173.27;;;58.90;;
21170;SDS011;10743;52.160;20.910;2022-12-07T12:00:04;164.07;;;55.03;;
21170;SDS011;10743;52.160;20.910;2022-12-07T12:05:24;162.90;;;55.70;;
21170;SDS011;10743;52.160;20.910;2022-12-07T12:07:59;160.43;;;54.20;;
21170;SDS011;10743;52.160;20.910;2022-12-07T12:11:52;159.07;;;53.87;;
21170;SDS011;10743;52.160;20.910;2022-12-07T12:25:52;162.23;;;54.07;;
21170;SDS011;10743;52.160;20.910;2022-12-07T12:28:32;154.43;;;53.00;;
21170;SDS011;10743;52.160;20.910;2022-12-07T12:33:57;163.13;;;53.93;;
21170;SDS011;10743;52.160;20.910;2022-12-07T12:46:52;163.20;;;53.57;;
21170;SDS011;10743;52.160;20.910;2022-12-07T12:51:54;165.60;;;54.43;;
21170;SDS011;10743;52.160;20.910;2022-12-07T12:54:28;160.40;;;54.67;;
21170;SDS011;10743;52.160;20.910;2022-12-07T12:59:41;171.67;;;54.33;;
21170;SDS011;10743;52.160;20.910;2022-12-07T13:12:55;167.37;;;56.23;;
21170;SDS011;10743;52.160;20.910;2022-12-07T13:15:35;171.53;;;55.90;;
21170;SDS011;10743;52.160;20.910;2022-12-07T13:29:07;172.83;;;65.50;;
21170;SDS011;10743;52.160;20.910;2022-12-07T13:31:41;164.03;;;55.00;;
21170;SDS011;10743;52.160;20.910;2022-12-07T13:39:45;155.80;;;52.83;;
21170;SDS011;10743;52.160;20.910;2022-12-07T13:44:52;157.63;;;52.73;;
21170;SDS011;10743;52.160;20.910;2022-12-07T13:50:25;159.77;;;53.27;;
21170;SDS011;10743;52.160;20.910;2022-12-07T13:52:58;160.90;;;54.60;;
21170;SDS011;10743;52.160;20.910;2022-12-07T13:55:27;157.77;;;54.00;;
21170;SDS011;10743;52.160;20.910;2022-12-07T13:57:56;158.53;;;52.90;;
21170;SDS011;10743;52.160;20.910;2022-12-07T14:00:26;162.80;;;53.23;;
21170;SDS011;10743;52.160;20.910;2022-12-07T14:03:00;162.30;;;53.90;;
21170;SDS011;10743;52.160;20.910;2022-12-07T14:05:33;158.80;;;53.27;;
21170;SDS011;10743;52.160;20.910;2022-12-07T14:08:03;158.20;;;55.03;;
21170;SDS011;10743;52.160;20.910;2022-12-07T14:18:56;165.57;;;54.40;;
21170;SDS011;10743;52.160;20.910;2022-12-07T14:21:26;159.07;;;53.60;;
21170;SDS011;10743;52.160;20.910;2022-12-07T14:24:08;171.30;;;59.30;;
21170;SDS011;10743;52.160;20.910;2022-12-07T14:26:39;167.87;;;56.40;;
21170;SDS011;10743;52.160;20.910;2022-12-07T14:31:46;162.10;;;55.60;;
21170;SDS011;10743;52.160;20.910;2022-12-07T14:34:13;162.63;;;54.90;;
21170;SDS011;10743;52.160;20.910;2022-12-07T14:36:40;159.30;;;53.63;;
21170;SDS011;10743;52.160;20.910;2022-12-07T14:39:07;158.63;;;53.97;;
21170;SDS011;10743;52.160;20.910;2022-12-07T14:41:38;160.03;;;54.87;;
21170;SDS011;10743;52.160;20.910;2022-12-07T14:44:21;151.90;;;52.63;;
21170;SDS011;10743;52.160;20.910;2022-12-07T14:46:57;157.73;;;53.83;;
21170;SDS011;10743;52.160;20.910;2022-12-07T14:49:44;153.40;;;53.27;;
21170;SDS011;10743;52.160;20.910;2022-12-07T14:52:16;158.63;;;54.83;;
21170;SDS011;10743;52.160;20.910;2022-12-07T14:55:13;151.40;;;53.10;;
21170;SDS011;10743;52.160;20.910;2022-12-07T14:57:54;157.00;;;53.87;;
21170;SDS011;10743;52.160;20.910;2022-12-07T15:00:23;156.67;;;55.47;;
21170;SDS011;10743;52.160;20.910;2022-12-07T15:02:52;155.40;;;54.67;;
21170;SDS011;10743;52.160;20.910;2022-12-07T15:05:19;160.27;;;55.30;;
21170;SDS011;10743;52.160;20.910;2022-12-07T15:07:47;158.97;;;53.90;;
21170;SDS011;10743;52.160;20.910;2022-12-07T15:12:56;154.60;;;53.47;;
21170;SDS011;10743;52.160;20.910;2022-12-07T15:15:47;156.93;;;52.93;;
21170;SDS011;10743;52.160;20.910;2022-12-07T15:18:16;155.47;;;54.50;;
21170;SDS011;10743;52.160;20.910;2022-12-07T15:20:44;167.00;;;62.77;;
21170;SDS011;10743;52.160;20.910;2022-12-07T15:23:12;158.13;;;56.17;;
21170;SDS011;10743;52.160;20.910;2022-12-07T15:25:40;159.90;;;53.77;;
21170;SDS011;10743;52.160;20.910;2022-12-07T15:28:09;169.50;;;72.07;;
21170;SDS011;10743;52.160;20.910;2022-12-07T15:30:39;160.13;;;54.57;;
21170;SDS011;10743;52.160;20.910;2022-12-07T15:33:09;159.37;;;54.97;;
21170;SDS011;10743;52.160;20.910;2022-12-07T15:35:41;162.63;;;59.03;;
21170;SDS011;10743;52.160;20.910;2022-12-07T15:38:10;156.77;;;54.33;;
21170;SDS011;10743;52.160;20.910;2022-12-07T15:40:37;166.87;;;54.83;;
21170;SDS011;10743;52.160;20.910;2022-12-07T15:43:04;162.63;;;54.27;;
21170;SDS011;10743;52.160;20.910;2022-12-07T15:45:51;165.70;;;55.20;;
21170;SDS011;10743;52.160;20.910;2022-12-07T15:48:18;174.77;;;59.87;;
21170;SDS011;10743;52.160;20.910;2022-12-07T15:51:01;155.77;;;54.00;;
21170;SDS011;10743;52.160;20.910;2022-12-07T15:53:33;156.03;;;57.03;;
21170;SDS011;10743;52.160;20.910;2022-12-07T15:56:01;165.47;;;55.77;;
21170;SDS011;10743;52.160;20.910;2022-12-07T15:58:32;164.33;;;58.03;;
21170;SDS011;10743;52.160;20.910;2022-12-07T16:00:59;153.83;;;53.43;;
21170;SDS011;10743;52.160;20.910;2022-12-07T16:03:26;162.53;;;54.00;;
21170;SDS011;10743;52.160;20.910;2022-12-07T16:05:54;159.03;;;54.70;;
21170;SDS011;10743;52.160;20.910;2022-12-07T16:08:21;154.50;;;54.53;;
21170;SDS011;10743;52.160;20.910;2022-12-07T16:10:48;155.73;;;54.53;;
21170;SDS011;10743;52.160;20.910;2022-12-07T16:13:15;154.30;;;54.20;;
21170;SDS011;10743;52.160;20.910;2022-12-07T16:15:42;156.03;;;54.57;;
21170;SDS011;10743;52.160;20.910;2022-12-07T16:18:09;155.07;;;53.77;;
21170;SDS011;10743;52.160;20.910;2022-12-07T16:20:37;160.23;;;54.37;;
21170;SDS011;10743;52.160;20.910;2022-12-07T16:23:04;157.03;;;54.23;;
21170;SDS011;10743;52.160;20.910;2022-12-07T16:25:31;157.83;;;54.33;;
21170;SDS011;10743;52.160;20.910;2022-12-07T16:27:59;159.77;;;54.43;;
21170;SDS011;10743;52.160;20.910;2022-12-07T16:30:26;158.07;;;54.57;;
21170;SDS011;10743;52.160;20.910;2022-12-07T16:32:52;153.37;;;54.23;;
21170;SDS011;10743;52.160;20.910;2022-12-07T16:35:26;160.90;;;54.80;;
21170;SDS011;10743;52.160;20.910;2022-12-07T16:37:53;154.60;;;53.87;;
21170;SDS011;10743;52.160;20.910;2022-12-07T16:40:19;163.67;;;56.47;;
21170;SDS011;10743;52.160;20.910;2022-12-07T16:42:46;165.40;;;57.30;;
21170;SDS011;10743;52.160;20.910;2022-12-07T16:45:13;177.13;;;59.47;;
21170;SDS011;10743;52.160;20.910;2022-12-07T16:47:46;171.60;;;58.60;;
21170;SDS011;10743;52.160;20.910;2022-12-07T16:50:13;168.97;;;57.13;;
21170;SDS011;10743;52.160;20.910;2022-12-07T16:52:40;163.90;;;56.63;;
21170;SDS011;10743;52.160;20.910;2022-12-07T16:55:07;165.10;;;57.43;;